Time;durP1;ratioP1;P1;durP2;ratioP2;P2;SDS_P1;SDS_P2;PMS_P1;PMS_P2;Temp;Humidity;BMP_temperature;BMP_pressure;BME280_temperature;BME280_humidity;BME280_pressure;Samples;Min_cycle;Max_cycle;Signal;HPM_P1;HPM_P2
2020/12/10 00:00:50;;;;;;;8.63;5.15;;;10.20;99.90;;;;;;5010207;28;20281;-30
2020/12/10 00:03:22;;;;;;;5.97;5.07;;;10.30;99.90;;;;;;5003238;28;20255;-29
2020/12/10 00:05:52;;;;;;;8.90;5.30;;;10.20;99.90;;;;;;5008414;28;20248;-29
2020/12/10 00:08:22;;;;;;;6.28;5.00;;;10.00;99.90;;;;;;4993848;28;20367;-27
2020/12/10 00:10:53;;;;;;;8.63;5.70;;;9.90;99.90;;;;;;4992889;28;20251;-28
2020/12/10 00:13:23;;;;;;;8.07;5.38;;;9.80;99.90;;;;;;4998308;28;20237;-29
2020/12/10 00:15:53;;;;;;;5.90;5.30;;;9.70;99.90;;;;;;4996107;28;20547;-29
2020/12/10 00:18:24;;;;;;;9.38;6.07;;;9.60;99.90;;;;;;5012022;28;20662;-29
2020/12/10 00:20:54;;;;;;;5.85;5.20;;;9.50;99.90;;;;;;5010341;28;20325;-27
2020/12/10 00:23:24;;;;;;;6.38;5.72;;;9.40;99.90;;;;;;4996759;28;20308;-29
2020/12/10 00:25:54;;;;;;;6.43;5.80;;;9.40;99.90;;;;;;4986784;28;20201;-28
2020/12/10 00:28:24;;;;;;;6.72;5.97;;;9.30;99.90;;;;;;4992451;28;20248;-29
2020/12/10 00:30:54;;;;;;;8.82;6.63;;;9.20;99.90;;;;;;4992221;28;20227;-28
2020/12/10 00:33:26;;;;;;;6.60;6.00;;;9.10;99.90;;;;;;5006994;28;20709;-29
2020/12/10 00:35:56;;;;;;;6.20;5.60;;;9.10;99.90;;;;;;5009773;28;20196;-29
2020/12/10 00:38:27;;;;;;;35.13;11.15;;;9.00;99.90;;;;;;5011801;28;20261;-29
2020/12/10 00:40:57;;;;;;;149.95;27.23;;;9.00;99.90;;;;;;5001078;28;20360;-28
2020/12/10 00:43:28;;;;;;;491.80;75.80;;;9.00;99.90;;;;;;4995639;28;20192;-28
2020/12/10 00:46:04;;;;;;;7.13;6.43;;;8.90;99.90;;;;;;4996681;28;20200;-27
2020/12/10 00:48:35;;;;;;;7.47;6.57;;;8.80;99.90;;;;;;4998603;28;20197;-27
2020/12/10 00:51:05;;;;;;;7.70;6.82;;;8.70;99.90;;;;;;5001030;28;20193;-29
2020/12/10 00:53:36;;;;;;;7.68;6.53;;;8.60;99.90;;;;;;4992778;28;20358;-28
2020/12/10 00:56:06;;;;;;;7.32;6.72;;;8.50;99.90;;;;;;5009977;28;20631;-29
2020/12/10 00:58:36;;;;;;;6.60;6.10;;;8.50;99.90;;;;;;4999253;28;20204;-29
2020/12/10 01:01:06;;;;;;;6.90;5.90;;;8.40;99.90;;;;;;4992123;28;20200;-30
2020/12/10 01:03:37;;;;;;;7.93;7.13;;;8.30;99.90;;;;;;4990468;28;20223;-29
2020/12/10 01:06:13;;;;;;;7.65;6.40;;;8.30;99.90;;;;;;4992279;28;20196;-28
2020/12/10 01:08:43;;;;;;;7.95;7.22;;;8.30;99.90;;;;;;4996886;28;20246;-28
2020/12/10 01:11:13;;;;;;;9.18;7.88;;;8.20;99.90;;;;;;4996934;28;20204;-28
2020/12/10 01:13:43;;;;;;;9.02;8.13;;;8.10;99.90;;;;;;4991304;28;20232;-29
2020/12/10 01:16:13;;;;;;;9.90;8.90;;;8.10;99.90;;;;;;4991988;28;20196;-29
2020/12/10 01:18:45;;;;;;;8.90;8.02;;;8.00;99.90;;;;;;5004102;28;20668;-29
2020/12/10 01:21:15;;;;;;;8.13;7.43;;;8.10;99.90;;;;;;5001488;28;20521;-29
2020/12/10 01:23:45;;;;;;;10.27;9.20;;;8.10;99.90;;;;;;4997154;28;20216;-29
2020/12/10 01:26:16;;;;;;;9.88;8.88;;;8.00;99.90;;;;;;5004991;28;20199;-29
2020/12/10 01:28:46;;;;;;;12.13;10.73;;;7.90;99.90;;;;;;4998548;28;20239;-28
2020/12/10 01:31:16;;;;;;;10.68;9.68;;;7.80;99.90;;;;;;4991438;28;20230;-28
2020/12/10 01:33:48;;;;;;;11.45;10.45;;;7.70;99.90;;;;;;5008755;28;20704;-29
2020/12/10 01:36:19;;;;;;;12.38;10.88;;;7.70;99.90;;;;;;5004841;28;20619;-29
2020/12/10 01:38:49;;;;;;;1836.65;296.65;;;7.70;99.90;;;;;;4993710;28;20624;-29
2020/12/10 01:41:20;;;;;;;837.80;141.20;;;7.70;99.90;;;;;;4999023;28;20663;-29
2020/12/10 01:43:50;;;;;;;1999.90;850.42;;;7.60;99.90;;;;;;5010326;28;20187;-29
2020/12/10 01:46:27;;;;;;;651.00;113.28;;;7.70;99.90;;;;;;4992451;28;20608;-28
2020/12/10 01:48:59;;;;;;;12.50;11.13;;;7.70;99.90;;;;;;4989829;28;20192;-29
2020/12/10 01:51:30;;;;;;;12.80;11.40;;;7.60;99.90;;;;;;4994017;28;20636;-28
2020/12/10 01:54:01;;;;;;;11.00;10.00;;;7.50;99.90;;;;;;4988391;28;20216;-28
2020/12/10 01:56:31;;;;;;;12.50;11.30;;;7.40;99.90;;;;;;4991479;28;20195;-28
2020/12/10 01:59:03;;;;;;;13.45;12.25;;;7.40;99.90;;;;;;4998262;28;20215;-29
2020/12/10 02:01:34;;;;;;;13.00;11.90;;;7.30;99.90;;;;;;4982808;28;20207;-29
2020/12/10 02:04:26;;;;;;;13.73;12.32;;;7.20;99.90;;;;;;4997006;28;20215;-30
2020/12/10 02:06:57;;;;;;;13.38;11.57;;;7.20;99.90;;;;;;5001451;28;20208;-29
2020/12/10 02:09:27;;;;;;;13.88;12.50;;;7.10;99.90;;;;;;4983288;28;20192;-29
2020/12/10 02:11:58;;;;;;;17.35;14.40;;;7.00;99.90;;;;;;4997167;28;20510;-29
2020/12/10 02:14:34;;;;;;;15.32;13.50;;;7.00;99.90;;;;;;5002082;28;20246;-29
2020/12/10 02:17:07;;;;;;;16.73;14.82;;;7.00;99.90;;;;;;5009324;28;20195;-29
2020/12/10 02:19:38;;;;;;;17.65;14.35;;;7.00;99.90;;;;;;4989672;28;20193;-29
2020/12/10 02:22:08;;;;;;;18.75;14.82;;;7.00;99.90;;;;;;4990367;28;20188;-29
2020/12/10 02:24:39;;;;;;;18.60;15.85;;;6.90;99.90;;;;;;4990511;28;20226;-29
2020/12/10 02:27:09;;;;;;;20.48;16.80;;;6.90;99.90;;;;;;5005977;28;20195;-29
2020/12/10 02:29:40;;;;;;;1999.90;533.30;;;6.80;99.90;;;;;;4975145;28;20226;-30
2020/12/10 02:32:10;;;;;;;1999.90;485.42;;;6.80;99.90;;;;;;4998043;28;20199;-29
2020/12/10 02:34:40;;;;;;;194.50;56.40;;;7.00;99.90;;;;;;4997468;28;20782;-29
2020/12/10 02:37:10;;;;;;;34.92;27.75;;;6.90;99.90;;;;;;4991660;28;20258;-29
2020/12/10 02:39:41;;;;;;;29.70;26.17;;;6.80;99.90;;;;;;4989814;28;20244;-29
2020/12/10 02:42:12;;;;;;;23.35;21.00;;;6.70;99.90;;;;;;5003261;28;20289;-29
2020/12/10 02:44:42;;;;;;;20.15;17.65;;;6.60;99.90;;;;;;5009317;28;20196;-30
2020/12/10 02:47:12;;;;;;;18.77;16.88;;;6.60;99.90;;;;;;5000162;28;20224;-29
2020/12/10 02:49:42;;;;;;;25.70;22.50;;;6.50;99.90;;;;;;4997572;28;20231;-29
2020/12/10 02:52:12;;;;;;;34.70;30.48;;;6.60;99.90;;;;;;4990297;28;20204;-29
2020/12/10 02:54:44;;;;;;;31.05;27.70;;;6.60;99.90;;;;;;4994045;28;20218;-29
2020/12/10 02:57:14;;;;;;;34.35;30.23;;;6.50;99.90;;;;;;4990118;28;20721;-30
2020/12/10 02:59:45;;;;;;;29.15;26.05;;;6.50;99.90;;;;;;4989536;28;20204;-30
2020/12/10 03:02:15;;;;;;;30.90;25.13;;;6.40;99.90;;;;;;5000688;28;20253;-30
2020/12/10 03:04:45;;;;;;;26.83;23.48;;;6.40;99.90;;;;;;5006355;28;20282;-30
2020/12/10 03:07:15;;;;;;;25.27;21.70;;;6.30;99.90;;;;;;5001085;28;20207;-29
2020/12/10 03:09:46;;;;;;;25.15;22.45;;;6.30;99.90;;;;;;4994759;28;20215;-29
2020/12/10 03:12:17;;;;;;;27.08;24.10;;;6.20;99.90;;;;;;4989786;28;20219;-29
2020/12/10 03:14:47;;;;;;;42.72;35.10;;;6.20;99.90;;;;;;4995891;28;20192;-29
2020/12/10 03:17:17;;;;;;;32.83;28.58;;;6.20;99.90;;;;;;4989761;28;20200;-29
2020/12/10 03:19:47;;;;;;;32.17;28.77;;;6.20;99.90;;;;;;4999496;28;20216;-29
2020/12/10 03:22:21;;;;;;;56.47;34.75;;;6.20;99.90;;;;;;4989478;28;20197;-28
2020/12/10 03:24:52;;;;;;;452.35;83.47;;;6.30;99.90;;;;;;4989402;28;20192;-29
2020/12/10 03:27:22;;;;;;;36.05;29.77;;;6.20;99.90;;;;;;4986990;28;20196;-29
2020/12/10 03:29:54;;;;;;;30.88;27.40;;;6.10;99.90;;;;;;4988728;28;20264;-29
2020/12/10 03:32:24;;;;;;;31.17;27.55;;;6.10;99.90;;;;;;4992548;28;20207;-29
2020/12/10 03:34:54;;;;;;;30.02;26.52;;;6.00;99.90;;;;;;4997986;28;20654;-29
2020/12/10 03:37:25;;;;;;;31.50;28.30;;;6.00;99.90;;;;;;5001125;28;20681;-29
2020/12/10 03:39:56;;;;;;;30.45;27.48;;;6.00;99.90;;;;;;5008341;28;20223;-29
2020/12/10 03:42:27;;;;;;;32.30;28.92;;;5.90;99.90;;;;;;4994560;28;20192;-29
2020/12/10 03:44:57;;;;;;;31.48;28.50;;;5.90;99.90;;;;;;4993669;28;20184;-29
2020/12/10 03:47:28;;;;;;;37.28;33.25;;;5.90;99.90;;;;;;4992251;28;22010;-29
2020/12/10 03:50:02;;;;;;;32.85;29.35;;;5.90;99.90;;;;;;4991069;28;20200;-29
2020/12/10 03:52:32;;;;;;;35.58;31.70;;;5.80;99.90;;;;;;4996824;28;20253;-29
2020/12/10 03:55:05;;;;;;;29.70;26.70;;;5.70;99.90;;;;;;4999042;28;20196;-34
2020/12/10 03:57:35;;;;;;;32.10;28.95;;;5.70;99.90;;;;;;4993063;28;20200;-29
2020/12/10 04:00:09;;;;;;;33.88;29.77;;;5.70;99.90;;;;;;4987944;28;20267;-29
2020/12/10 04:02:39;;;;;;;37.00;32.53;;;5.70;99.90;;;;;;4995081;28;20204;-29
2020/12/10 04:05:09;;;;;;;36.25;32.35;;;5.60;99.90;;;;;;4995722;28;20207;-29
2020/12/10 04:07:41;;;;;;;1999.90;506.90;;;5.60;99.90;;;;;;4993001;28;20212;-29
2020/12/10 04:10:13;;;;;;;373.20;90.07;;;5.60;99.90;;;;;;5004989;28;20200;-29
2020/12/10 04:12:46;;;;;;;515.08;119.15;;;5.70;99.90;;;;;;5000261;28;20242;-29
2020/12/10 04:15:16;;;;;;;1999.90;897.35;;;5.60;99.90;;;;;;5003223;28;20594;-28
2020/12/10 04:17:46;;;;;;;34.83;31.23;;;5.80;99.90;;;;;;4988684;28;20196;-28
2020/12/10 04:20:16;;;;;;;31.98;28.67;;;5.60;99.90;;;;;;4999253;28;20287;-30
2020/12/10 04:22:46;;;;;;;34.60;29.17;;;5.50;99.90;;;;;;4996300;28;20297;-28
2020/12/10 04:25:18;;;;;;;38.22;34.65;;;5.40;99.90;;;;;;5001371;28;20215;-28
2020/12/10 04:27:48;;;;;;;42.03;37.28;;;5.40;99.90;;;;;;5006893;28;20222;-28
2020/12/10 04:30:21;;;;;;;38.85;34.85;;;5.40;99.90;;;;;;4992607;28;20219;-28
2020/12/10 04:32:52;;;;;;;38.88;34.88;;;5.30;99.90;;;;;;4998909;28;20710;-29
2020/12/10 04:35:23;;;;;;;40.13;36.00;;;5.30;99.90;;;;;;5011122;28;20298;-29
2020/12/10 04:37:53;;;;;;;43.40;38.15;;;5.30;99.90;;;;;;4995282;28;20229;-29
2020/12/10 04:40:24;;;;;;;69.60;46.38;;;5.30;99.90;;;;;;4991345;28;20232;-29
2020/12/10 04:42:59;;;;;;;48.83;39.17;;;5.30;99.90;;;;;;5002079;28;20225;-29
2020/12/10 04:45:29;;;;;;;1999.90;918.83;;;5.20;99.90;;;;;;4992080;28;20297;-29
2020/12/10 04:48:02;;;;;;;1999.90;788.47;;;5.50;99.90;;;;;;4999213;28;20227;-29
2020/12/10 04:50:35;;;;;;;56.92;44.97;;;5.60;99.90;;;;;;4996758;28;20215;-29
2020/12/10 04:53:06;;;;;;;57.72;43.17;;;5.60;99.90;;;;;;4992071;28;20216;-29
2020/12/10 04:55:38;;;;;;;104.47;43.50;;;5.50;99.90;;;;;;4991939;28;20215;-29
2020/12/10 04:58:10;;;;;;;120.80;53.92;;;5.50;99.90;;;;;;5004067;28;20287;-29
2020/12/10 05:00:42;;;;;;;86.18;52.75;;;5.50;99.90;;;;;;4993703;28;20219;-30
2020/12/10 05:03:16;;;;;;;48.22;39.55;;;5.50;99.90;;;;;;4994051;28;20686;-29
2020/12/10 05:05:52;;;;;;;74.53;40.42;;;5.40;99.90;;;;;;4988599;28;20229;-29
2020/12/10 05:08:35;;;;;;;88.57;39.55;;;5.40;99.90;;;;;;4995269;28;20233;-29
2020/12/10 05:11:35;;;;;;;51.60;38.83;;;5.40;99.90;;;;;;4988920;28;20215;-29
2020/12/10 05:14:06;;;;;;;55.40;42.13;;;5.30;99.90;;;;;;4989403;28;20232;-29
2020/12/10 05:16:36;;;;;;;52.00;40.05;;;5.20;99.90;;;;;;4995805;28;20200;-29
2020/12/10 05:19:21;;;;;;;60.28;47.22;;;5.20;99.90;;;;;;4995489;28;20223;-29
2020/12/10 05:22:05;;;;;;;50.63;41.47;;;5.10;99.90;;;;;;4998801;28;20208;-29
2020/12/10 05:24:35;;;;;;;59.72;43.45;;;5.20;99.90;;;;;;4991246;28;20736;-28
2020/12/10 05:27:32;;;;;;;80.65;51.17;;;5.20;99.90;;;;;;4996008;28;20267;-29
2020/12/10 05:30:03;;;;;;;73.57;47.58;;;5.20;99.90;;;;;;4997007;28;20246;-29
2020/12/10 05:35:24;;;;;;;120.78;72.57;;;5.30;99.90;;;;;;4981914;28;20231;-29
2020/12/10 05:37:55;;;;;;;167.48;92.05;;;5.50;99.90;;;;;;4992137;28;20262;-29
2020/12/10 05:40:25;;;;;;;177.90;96.60;;;5.60;99.90;;;;;;4995660;28;20223;-29
2020/12/10 05:42:56;;;;;;;109.55;71.30;;;5.70;99.90;;;;;;4994931;28;20234;-29
2020/12/10 05:45:27;;;;;;;97.35;59.25;;;5.70;99.90;;;;;;4996806;28;20200;-28
2020/12/10 05:48:01;;;;;;;101.07;57.88;;;5.80;99.90;;;;;;4992726;28;20198;-29
2020/12/10 05:50:33;;;;;;;85.50;51.88;;;5.80;99.90;;;;;;5006916;28;20726;-29
2020/12/10 05:53:19;;;;;;;73.18;46.13;;;6.00;99.90;;;;;;5004884;28;20208;-29
2020/12/10 05:55:49;;;;;;;47.33;38.45;;;6.00;99.90;;;;;;5005107;28;20195;-29
2020/12/10 05:58:21;;;;;;;70.88;40.90;;;6.10;99.90;;;;;;5003599;28;20623;-29
2020/12/10 06:00:54;;;;;;;37.08;31.08;;;6.20;99.90;;;;;;4990978;28;20192;-29
2020/12/10 06:03:25;;;;;;;57.15;37.65;;;6.30;99.90;;;;;;4998670;28;20627;-29
2020/12/10 06:06:06;;;;;;;47.35;34.10;;;6.40;99.90;;;;;;5002401;28;20185;-29
2020/12/10 06:08:40;;;;;;;34.50;30.70;;;6.40;99.90;;;;;;4990601;28;20563;-29
2020/12/10 06:11:17;;;;;;;31.33;28.08;;;6.50;99.90;;;;;;4999396;28;20283;-29
2020/12/10 06:14:10;;;;;;;35.72;30.05;;;6.50;99.90;;;;;;5008688;28;20215;-29
2020/12/10 06:16:40;;;;;;;31.52;27.40;;;6.60;99.90;;;;;;4979490;28;20257;-29
2020/12/10 06:19:13;;;;;;;40.80;29.73;;;6.60;99.90;;;;;;5006858;28;20326;-29
2020/12/10 06:21:45;;;;;;;44.30;29.63;;;6.70;99.90;;;;;;5002048;28;20222;-29
2020/12/10 06:24:34;;;;;;;62.78;27.17;;;6.70;99.90;;;;;;5005269;28;20260;-29
2020/12/10 06:27:22;;;;;;;77.25;27.60;;;6.80;99.90;;;;;;4996983;28;20266;-29
2020/12/10 06:30:15;;;;;;;57.55;25.75;;;6.80;99.90;;;;;;4992958;28;20282;-29
2020/12/10 06:32:47;;;;;;;41.78;20.63;;;6.80;99.90;;;;;;4975075;28;20191;-29
2020/12/10 06:35:32;;;;;;;27.27;21.38;;;6.90;99.90;;;;;;4994946;28;20223;-29
2020/12/10 06:38:10;;;;;;;26.08;19.90;;;6.90;99.90;;;;;;5004114;28;20196;-29
2020/12/10 06:40:41;;;;;;;24.17;19.23;;;7.00;99.90;;;;;;5004134;28;20232;-30
2020/12/10 06:43:11;;;;;;;29.40;19.10;;;6.90;99.90;;;;;;5001457;28;20265;-29
2020/12/10 06:45:43;;;;;;;26.02;17.63;;;7.00;99.90;;;;;;4995625;28;20726;-29
2020/12/10 06:48:20;;;;;;;25.23;17.08;;;7.00;99.90;;;;;;4995091;28;20188;-28
2020/12/10 06:50:51;;;;;;;25.83;15.70;;;7.00;99.90;;;;;;4972986;28;20207;-28
2020/12/10 06:53:23;;;;;;;22.40;15.35;;;7.00;99.90;;;;;;5002694;28;20611;-29
2020/12/10 06:56:06;;;;;;;24.20;15.90;;;7.10;99.90;;;;;;4992078;28;20227;-29
2020/12/10 06:58:54;;;;;;;23.13;14.85;;;7.10;99.90;;;;;;4990874;28;20188;-29
2020/12/10 07:01:30;;;;;;;32.78;16.35;;;7.10;99.90;;;;;;5008394;28;20658;-30
2020/12/10 07:04:16;;;;;;;19.67;13.10;;;7.10;99.90;;;;;;5009617;28;20278;-28
2020/12/10 07:06:47;;;;;;;27.10;13.20;;;7.20;99.90;;;;;;5000364;28;20275;-28
2020/12/10 07:09:17;;;;;;;25.55;14.18;;;7.20;99.90;;;;;;5009717;28;20188;-28
2020/12/10 07:11:47;;;;;;;32.30;15.05;;;7.10;99.90;;;;;;5008325;28;20650;-29
2020/12/10 07:14:26;;;;;;;75.35;22.02;;;7.10;99.90;;;;;;5000299;28;20334;-29
2020/12/10 07:19:45;;;;;;;37.70;15.02;;;7.30;99.90;;;;;;5001170;28;20281;-29
2020/12/10 07:22:37;;;;;;;39.50;14.63;;;7.30;99.90;;;;;;4989931;28;20255;-29
2020/12/10 07:25:32;;;;;;;30.42;14.52;;;7.20;99.90;;;;;;4998168;28;20203;-29
2020/12/10 07:28:12;;;;;;;20.15;13.00;;;7.30;99.90;;;;;;4990371;28;20264;-29
2020/12/10 07:30:46;;;;;;;57.88;18.50;;;7.30;99.90;;;;;;4995462;28;20213;-29
2020/12/10 07:36:08;;;;;;;27.33;14.48;;;7.40;99.90;;;;;;4997979;28;20252;-28
2020/12/10 07:38:38;;;;;;;23.27;12.65;;;7.50;99.90;;;;;;4989882;28;20196;-28
2020/12/10 07:41:11;;;;;;;30.20;15.02;;;7.40;99.90;;;;;;4989862;28;20323;-29
2020/12/10 07:43:51;;;;;;;29.30;14.20;;;7.40;99.90;;;;;;4994337;28;20250;-28
2020/12/10 07:46:40;;;;;;;21.88;14.18;;;7.40;99.90;;;;;;4979035;28;20710;-29
2020/12/10 07:49:13;;;;;;;24.85;13.55;;;7.40;99.90;;;;;;5005243;28;20623;-28
2020/12/10 07:52:01;;;;;;;22.10;13.57;;;7.40;99.90;;;;;;5008271;28;20306;-28
2020/12/10 07:54:45;;;;;;;32.03;14.93;;;7.30;99.90;;;;;;5000368;28;20215;-28
2020/12/10 07:57:32;;;;;;;38.60;14.65;;;7.40;99.90;;;;;;4996945;28;20539;-29
2020/12/10 08:00:08;;;;;;;35.92;14.25;;;7.30;99.90;;;;;;4989813;28;20516;-29
2020/12/10 08:08:42;;;;;;;19.45;12.25;;;7.50;99.90;;;;;;4997574;28;20593;-29
2020/12/10 08:11:19;;;;;;;29.42;14.13;;;7.50;99.90;;;;;;4991016;28;20211;-29
2020/12/10 08:14:00;;;;;;;41.70;15.13;;;7.40;99.90;;;;;;4996545;28;20241;-29
2020/12/10 08:16:43;;;;;;;30.83;14.43;;;7.40;99.90;;;;;;5007666;28;20206;-29
2020/12/10 08:19:17;;;;;;;17.45;12.63;;;7.40;99.90;;;;;;5010541;28;20191;-29
2020/12/10 08:24:37;;;;;;;41.97;15.13;;;7.40;99.90;;;;;;5001549;28;20249;-29
2020/12/10 08:27:10;;;;;;;34.42;14.02;;;7.40;99.90;;;;;;5010196;28;20587;-29
2020/12/10 08:32:24;;;;;;;40.22;16.90;;;7.40;99.90;;;;;;5007167;28;20669;-29
2020/12/10 08:37:50;;;;;;;42.42;16.17;;;7.40;99.90;;;;;;4996324;28;20250;-29
2020/12/10 08:40:28;;;;;;;46.90;14.18;;;7.40;99.90;;;;;;5006778;28;20267;-29
2020/12/10 08:43:27;;;;;;;28.92;12.90;;;7.40;99.90;;;;;;5010563;28;20690;-29
2020/12/10 08:46:14;;;;;;;17.48;10.95;;;7.30;99.90;;;;;;5007376;28;20231;-29
2020/12/10 08:51:42;;;;;;;30.25;11.68;;;7.20;99.90;;;;;;5012267;28;20533;-29
2020/12/10 08:54:13;;;;;;;26.35;11.65;;;7.20;99.90;;;;;;4999309;28;20270;-29
2020/12/10 08:56:43;;;;;;;38.05;12.30;;;7.10;99.90;;;;;;4992726;28;20287;-29
2020/12/10 08:59:13;;;;;;;23.63;11.68;;;7.10;99.90;;;;;;5009844;28;20219;-29
2020/12/10 09:01:53;;;;;;;20.42;9.93;;;7.20;99.90;;;;;;5002418;28;20196;-29
2020/12/10 09:07:11;;;;;;;39.90;13.20;;;7.20;99.90;;;;;;4975109;28;20640;-29
2020/12/10 09:12:26;;;;;;;25.20;11.32;;;7.20;99.90;;;;;;4997028;28;20208;-29
2020/12/10 09:20:38;;;;;;;21.25;10.82;;;7.20;99.90;;;;;;5007010;28;20559;-29
2020/12/10 09:26:25;;;;;;;25.10;11.25;;;7.20;99.90;;;;;;5009351;28;20203;-30
2020/12/10 09:29:06;;;;;;;17.30;10.70;;;7.10;99.90;;;;;;4996097;28;20290;-29
2020/12/10 09:31:36;;;;;;;41.30;16.40;;;7.20;99.90;;;;;;4992229;28;20554;-29
2020/12/10 09:34:07;;;;;;;30.55;14.20;;;7.30;99.90;;;;;;5001826;28;20234;-29
2020/12/10 09:36:39;;;;;;;27.15;12.80;;;7.20;99.90;;;;;;5009694;28;20261;-28
2020/12/10 09:39:09;;;;;;;22.27;13.43;;;7.10;99.90;;;;;;4998566;28;20291;-29
2020/12/10 09:41:54;;;;;;;21.20;12.32;;;7.10;99.90;;;;;;4983999;28;20246;-29
2020/12/10 09:44:24;;;;;;;28.00;12.60;;;7.10;99.90;;;;;;4998149;28;20627;-29
2020/12/10 09:46:55;;;;;;;38.97;13.73;;;7.00;99.90;;;;;;4992350;28;20195;-29
2020/12/10 09:49:25;;;;;;;20.55;12.45;;;7.10;99.90;;;;;;5010350;28;20589;-29
2020/12/10 09:51:59;;;;;;;26.65;13.60;;;7.10;99.90;;;;;;5010382;28;20199;-29
2020/12/10 09:57:29;;;;;;;20.42;11.85;;;7.10;99.90;;;;;;4991008;28;20214;-29
2020/12/10 10:00:00;;;;;;;17.92;11.57;;;7.20;99.90;;;;;;4999179;28;20243;-29
2020/12/10 10:05:16;;;;;;;21.17;12.20;;;7.20;99.90;;;;;;4975178;28;20196;-29
2020/12/10 10:07:46;;;;;;;13.38;10.88;;;7.20;99.90;;;;;;4998487;28;20211;-29
2020/12/10 10:10:17;;;;;;;16.00;10.70;;;7.20;99.90;;;;;;5008367;28;20203;-29
2020/12/10 10:13:11;;;;;;;12.30;10.68;;;7.20;99.90;;;;;;5010010;28;20222;-29
2020/12/10 10:15:42;;;;;;;12.27;10.32;;;7.20;99.90;;;;;;4997665;28;20285;-29
2020/12/10 10:18:12;;;;;;;14.27;10.30;;;7.00;99.90;;;;;;4999265;28;20201;-29
2020/12/10 10:20:42;;;;;;;11.15;9.60;;;7.00;99.90;;;;;;4994646;28;20208;-29
2020/12/10 10:23:12;;;;;;;8.32;7.53;;;6.90;99.90;;;;;;4981578;28;20687;-29
2020/12/10 10:25:42;;;;;;;7.35;6.63;;;6.80;99.90;;;;;;4999626;28;20306;-29
2020/12/10 10:28:14;;;;;;;9.35;7.95;;;6.60;99.90;;;;;;4991519;28;20216;-30
2020/12/10 10:30:44;;;;;;;8.75;7.72;;;6.60;99.90;;;;;;4990646;28;20231;-29
2020/12/10 10:33:17;;;;;;;11.10;9.15;;;6.50;99.90;;;;;;4977820;28;20650;-29
2020/12/10 10:35:49;;;;;;;10.52;8.57;;;6.50;99.90;;;;;;5003326;28;20230;-29
2020/12/10 10:38:19;;;;;;;9.02;8.23;;;6.50;99.90;;;;;;5003150;28;20569;-29
2020/12/10 10:40:49;;;;;;;9.57;8.45;;;6.40;99.90;;;;;;4996724;28;20227;-29
2020/12/10 10:43:20;;;;;;;8.70;7.68;;;6.40;99.90;;;;;;4996952;28;20199;-30
2020/12/10 10:48:36;;;;;;;9.10;8.00;;;6.30;99.90;;;;;;5008266;28;20214;-29
2020/12/10 10:51:11;;;;;;;10.63;8.65;;;6.30;99.90;;;;;;5004454;28;20194;-29
2020/12/10 10:53:42;;;;;;;9.13;7.97;;;6.30;99.90;;;;;;4992442;28;20200;-29
2020/12/10 10:56:12;;;;;;;10.98;7.97;;;6.20;99.90;;;;;;5004645;28;20542;-29
2020/12/10 10:58:44;;;;;;;18.98;9.15;;;6.10;99.90;;;;;;4997400;28;20250;-29
2020/12/10 11:01:18;;;;;;;19.42;8.57;;;6.00;99.90;;;;;;4999149;28;20188;-28
2020/12/10 11:04:13;;;;;;;85.72;14.10;;;6.00;99.90;;;;;;5004536;28;20205;-29
2020/12/10 11:06:43;;;;;;;46.67;11.35;;;6.00;99.90;;;;;;5007983;28;20211;-29
2020/12/10 11:09:13;;;;;;;45.78;11.02;;;5.90;99.90;;;;;;5007657;28;20199;-29
2020/12/10 11:11:43;;;;;;;16.38;9.70;;;5.80;99.90;;;;;;4997463;28;20203;-29
2020/12/10 11:14:30;;;;;;;13.93;8.02;;;5.70;99.90;;;;;;4995019;28;20627;-29
2020/12/10 11:17:00;;;;;;;9.23;6.63;;;5.70;99.90;;;;;;4993175;28;20204;-29
2020/12/10 11:22:15;;;;;;;8.00;6.85;;;5.70;99.90;;;;;;5007902;28;20199;-29
2020/12/10 11:25:04;;;;;;;6.38;5.75;;;5.60;99.90;;;;;;4992604;28;20262;-29
2020/12/10 11:27:43;;;;;;;8.18;6.18;;;5.50;99.90;;;;;;4995695;28;20214;-28
2020/12/10 11:30:14;;;;;;;6.13;5.45;;;5.50;99.90;;;;;;4997388;28;20192;-28
2020/12/10 11:32:44;;;;;;;7.15;5.70;;;5.40;99.90;;;;;;5006868;28;20191;-29
2020/12/10 11:35:14;;;;;;;7.03;5.95;;;5.40;99.90;;;;;;5009466;28;20227;-28
2020/12/10 11:37:44;;;;;;;4.80;4.30;;;5.40;99.90;;;;;;4998118;28;20203;-28
2020/12/10 11:40:14;;;;;;;6.47;5.40;;;5.30;99.90;;;;;;4989646;28;20227;-28
2020/12/10 11:42:48;;;;;;;6.68;5.30;;;5.30;99.90;;;;;;5001959;28;20577;-29
2020/12/10 11:45:19;;;;;;;7.13;5.28;;;5.30;99.90;;;;;;4998024;28;20257;-28
2020/12/10 11:47:50;;;;;;;7.68;5.05;;;5.20;99.90;;;;;;4994867;28;20193;-29
2020/12/10 11:53:06;;;;;;;13.57;5.90;;;5.10;99.90;;;;;;5005890;28;20200;-29
2020/12/10 11:58:20;;;;;;;6.10;5.50;;;5.00;99.90;;;;;;5008784;28;20199;-29
2020/12/10 12:00:51;;;;;;;6.30;5.60;;;4.90;99.90;;;;;;4994184;28;20203;-29
2020/12/10 12:03:21;;;;;;;6.93;5.53;;;4.90;99.90;;;;;;5003374;28;20651;-28
2020/12/10 12:08:36;;;;;;;6.25;5.60;;;4.80;99.90;;;;;;5007679;28;20191;-28
2020/12/10 12:11:21;;;;;;;5.50;5.00;;;4.70;99.90;;;;;;4997189;28;20595;-29
2020/12/10 12:13:57;;;;;;;5.82;5.22;;;4.70;99.90;;;;;;5000197;28;20302;-28
2020/12/10 12:16:28;;;;;;;6.75;5.03;;;4.60;99.90;;;;;;4990251;28;20231;-29
2020/12/10 12:18:59;;;;;;;8.00;6.10;;;4.70;99.90;;;;;;5011708;28;20191;-29
2020/12/10 12:21:29;;;;;;;6.18;5.57;;;4.70;99.90;;;;;;5012039;28;20211;-28
2020/12/10 12:23:59;;;;;;;8.00;5.70;;;4.70;99.90;;;;;;5009947;28;20191;-28
2020/12/10 12:26:33;;;;;;;6.75;5.85;;;4.70;99.90;;;;;;4998815;28;20286;-28
2020/12/10 12:29:17;;;;;;;5.55;5.00;;;4.70;99.90;;;;;;4994870;28;20278;-28
2020/12/10 12:32:06;;;;;;;7.03;5.57;;;4.70;99.90;;;;;;4999186;28;20203;-28
2020/12/10 12:34:46;;;;;;;5.80;5.10;;;4.80;99.90;;;;;;5012139;28;20227;-28
2020/12/10 12:37:27;;;;;;;6.90;5.97;;;4.80;99.90;;;;;;4996201;28;20705;-28
2020/12/10 12:45:26;;;;;;;10.70;6.35;;;4.60;99.90;;;;;;4999097;28;20333;-28
2020/12/10 12:47:57;;;;;;;5.97;5.15;;;4.50;99.90;;;;;;5010627;28;20265;-29
2020/12/10 12:50:27;;;;;;;6.03;5.15;;;4.50;99.90;;;;;;5002263;28;20188;-29
2020/12/10 12:55:41;;;;;;;6.20;5.53;;;4.40;99.90;;;;;;5007153;28;20220;-29
2020/12/10 12:58:11;;;;;;;6.40;5.50;;;4.40;99.90;;;;;;4991027;28;20191;-29
2020/12/10 13:00:41;;;;;;;10.88;5.50;;;4.50;99.90;;;;;;5004318;28;20199;-29
2020/12/10 13:03:19;;;;;;;5.55;4.85;;;4.50;99.90;;;;;;5011645;28;20199;-29
2020/12/10 13:06:10;;;;;;;5.25;4.75;;;4.50;99.90;;;;;;4993183;28;20226;-29
2020/12/10 13:08:40;;;;;;;6.85;5.50;;;4.50;99.90;;;;;;4999714;28;20255;-29
2020/12/10 13:11:10;;;;;;;6.90;5.30;;;4.60;99.90;;;;;;5005536;28;20291;-29
2020/12/10 13:13:40;;;;;;;5.78;5.10;;;4.60;99.90;;;;;;4993046;28;20208;-29
2020/12/10 13:16:10;;;;;;;5.43;4.80;;;4.60;99.90;;;;;;5000798;28;20234;-29
2020/12/10 13:18:42;;;;;;;4.78;4.30;;;4.50;99.90;;;;;;5002900;28;20203;-29
2020/12/10 13:21:20;;;;;;;5.47;4.10;;;4.50;99.90;;;;;;5002225;28;20648;-29
2020/12/10 13:23:51;;;;;;;5.57;5.15;;;4.60;99.90;;;;;;4991361;28;20628;-29
2020/12/10 13:26:28;;;;;;;4.70;4.30;;;4.60;99.90;;;;;;5001760;28;20196;-29
2020/12/10 13:29:24;;;;;;;4.68;4.38;;;4.50;99.90;;;;;;5010918;28;20258;-29
2020/12/10 13:32:04;;;;;;;3.47;3.17;;;4.50;99.90;;;;;;4988934;28;20673;-29
2020/12/10 13:34:35;;;;;;;3.45;2.95;;;4.50;99.90;;;;;;4989562;28;20215;-29
2020/12/10 13:39:49;;;;;;;2.38;2.20;;;4.60;99.90;;;;;;5007738;28;22144;-29
2020/12/10 13:42:23;;;;;;;3.50;2.95;;;4.60;99.90;;;;;;4993836;28;20302;-29
2020/12/10 13:44:54;;;;;;;2.65;2.45;;;4.70;99.90;;;;;;4999977;28;20275;-29
2020/12/10 13:47:24;;;;;;;2.42;2.28;;;4.80;99.90;;;;;;5004977;28;20207;-28
2020/12/10 13:50:18;;;;;;;2.70;2.50;;;4.70;99.90;;;;;;5003599;28;20532;-29
2020/12/10 13:52:48;;;;;;;2.80;2.60;;;4.70;99.90;;;;;;5010273;28;20683;-29
2020/12/10 13:55:40;;;;;;;3.83;2.60;;;4.70;99.90;;;;;;4999633;28;20220;-29
2020/12/10 14:01:43;;;;;;;3.33;3.03;;;4.80;99.90;;;;;;4999939;28;20568;-29
2020/12/10 14:04:13;;;;;;;3.92;3.63;;;4.70;99.90;;;;;;4976907;28;20196;-29
2020/12/10 14:07:10;;;;;;;5.00;2.92;;;4.70;99.90;;;;;;4993119;28;20274;-29
2020/12/10 14:09:46;;;;;;;4.05;3.30;;;4.60;99.90;;;;;;4990764;28;20687;-29
2020/12/10 14:18:12;;;;;;;4.28;3.88;;;4.40;99.90;;;;;;4989095;28;20200;-29
2020/12/10 14:20:42;;;;;;;4.05;3.65;;;4.40;99.90;;;;;;5006701;28;20199;-29
2020/12/10 14:23:18;;;;;;;3.90;3.45;;;4.30;99.90;;;;;;4999702;28;20258;-29
2020/12/10 14:25:48;;;;;;;3.80;3.40;;;4.30;99.90;;;;;;4992086;28;20192;-29
2020/12/10 14:28:36;;;;;;;3.75;3.40;;;4.20;99.90;;;;;;4990901;28;20295;-29
2020/12/10 14:31:06;;;;;;;3.50;3.20;;;4.20;99.90;;;;;;4994572;28;20189;-29
2020/12/10 14:33:39;;;;;;;5.05;3.75;;;4.20;99.90;;;;;;4997813;28;20199;-29
2020/12/10 14:36:09;;;;;;;6.07;3.70;;;4.20;99.90;;;;;;5009093;28;20318;-29